createdAt,value
2022-11-23T00:01:31.437Z,99770.66
2022-11-23T00:04:02.035Z,99770.66
2022-11-23T00:06:29.112Z,99773.88
2022-11-23T00:08:56.185Z,99776.59
2022-11-23T00:11:24.222Z,99781.53
2022-11-23T00:13:51.237Z,99784.13
2022-11-23T00:16:29.689Z,99785.97
2022-11-23T00:18:58.671Z,99780.81
2022-11-23T00:21:28.701Z,99794.06
2022-11-23T00:23:55.450Z,99790.16
2022-11-23T00:26:22.557Z,99785.78
2022-11-23T00:28:49.370Z,99793.50
2022-11-23T00:31:18.338Z,99796.00
2022-11-23T00:33:55.765Z,99803.81
2022-11-23T00:36:24.104Z,99806.03
2022-11-23T00:38:51.957Z,99792.47
2022-11-23T00:41:21.986Z,99796.16
2022-11-23T00:43:49.073Z,99792.69
2022-11-23T00:46:19.815Z,99763.47
2022-11-23T00:48:49.072Z,99741.41
2022-11-23T00:51:21.756Z,99762.16
2022-11-23T00:53:51.352Z,99769.13
2022-11-23T00:56:18.606Z,99765.00
2022-11-23T00:58:50.686Z,99781.13
2022-11-23T01:01:19.819Z,99767.97
2022-11-23T01:03:48.954Z,99775.50
2022-11-23T01:06:18.689Z,99791.59
2022-11-23T01:08:53.021Z,99784.31
2022-11-23T01:11:20.162Z,99794.31
2022-11-23T01:13:49.667Z,99802.69
2022-11-23T01:16:24.248Z,99808.50
2022-11-23T01:19:01.987Z,99805.38
2022-11-23T01:21:30.057Z,99814.66
2022-11-23T01:23:57.527Z,99813.13
2022-11-23T01:26:25.035Z,99815.69
2022-11-23T01:28:51.980Z,99804.34
2022-11-23T01:31:24.372Z,99807.97
2022-11-23T01:33:55.696Z,99806.56
2022-11-23T01:36:24.827Z,99797.91
2022-11-23T01:38:51.961Z,99794.97
2022-11-23T01:41:25.793Z,99793.16
2022-11-23T01:43:53.021Z,99792.13
2022-11-23T01:46:20.451Z,99776.72
2022-11-23T01:48:57.606Z,99777.19
2022-11-23T01:51:29.159Z,99765.22
2022-11-23T01:54:16.631Z,99767.56
2022-11-23T01:56:47.946Z,99774.28
2022-11-23T01:59:16.887Z,99783.63
2022-11-23T02:01:44.568Z,99780.50
2022-11-23T02:04:29.642Z,99772.56
2022-11-23T02:06:57.346Z,99777.63
2022-11-23T02:09:26.556Z,99765.31
2022-11-23T02:11:53.187Z,99761.84
2022-11-23T02:14:23.350Z,99769.47
2022-11-23T02:16:54.265Z,99777.00
2022-11-23T02:20:00.462Z,99772.38
2022-11-23T02:22:46.051Z,99774.97
2022-11-23T02:25:24.135Z,99778.34
2022-11-23T02:27:53.686Z,99775.63
2022-11-23T02:30:20.335Z,99772.91
2022-11-23T02:32:46.945Z,99788.00
2022-11-23T02:35:13.654Z,99785.66
2022-11-23T02:37:43.532Z,99782.41
2022-11-23T02:40:32.079Z,99787.63
2022-11-23T02:42:59.860Z,99777.41
2022-11-23T02:45:49.783Z,99780.72
2022-11-23T02:48:16.981Z,99778.22
2022-11-23T02:50:44.081Z,99784.41
2022-11-23T02:53:10.883Z,99778.72
2022-11-23T02:55:37.820Z,99787.09
2022-11-23T02:58:05.858Z,99781.03
2022-11-23T03:00:33.430Z,99777.25
2022-11-23T03:03:01.748Z,99778.91
2022-11-23T03:05:28.381Z,99776.13
2022-11-23T03:07:55.150Z,99779.44
2022-11-23T03:10:22.278Z,99779.44
2022-11-23T03:12:54.430Z,99783.59
2022-11-23T03:15:21.700Z,99787.78
2022-11-23T03:17:48.472Z,99787.94
2022-11-23T03:20:16.510Z,99797.19
2022-11-23T03:22:46.347Z,99798.56
2022-11-23T03:25:14.957Z,99806.91
2022-11-23T03:27:47.900Z,99807.13
2022-11-23T03:30:15.330Z,99806.06
2022-11-23T03:32:42.790Z,99810.47
2022-11-23T03:35:09.595Z,99802.72
2022-11-23T03:37:45.720Z,99802.50
2022-11-23T03:40:12.955Z,99808.13
2022-11-23T03:43:07.640Z,99814.56
2022-11-23T03:45:34.260Z,99812.06
2022-11-23T03:48:00.824Z,99808.78
2022-11-23T03:50:29.776Z,99807.25
2022-11-23T03:52:57.145Z,99806.59
2022-11-23T03:55:23.792Z,99806.22
2022-11-23T03:57:56.461Z,99810.78
2022-11-23T04:00:23.213Z,99806.69
2022-11-23T04:02:49.841Z,99809.34
2022-11-23T04:05:45.439Z,99806.84
2022-11-23T04:08:37.981Z,99797.13
2022-11-23T04:11:09.781Z,99790.94
2022-11-23T04:13:38.589Z,99800.31
2022-11-23T04:16:07.315Z,99796.28
2022-11-23T04:18:34.243Z,99797.19
2022-11-23T04:21:00.852Z,99791.06
2022-11-23T04:23:28.309Z,99793.06
2022-11-23T04:25:55.345Z,99797.91
2022-11-23T04:28:23.312Z,99796.22
2022-11-23T04:30:49.958Z,99794.31
2022-11-23T04:33:17.432Z,99794.28
2022-11-23T04:35:44.497Z,99796.69
2022-11-23T04:38:11.140Z,99795.50
2022-11-23T04:40:38.230Z,99797.00
2022-11-23T04:43:06.776Z,99786.47
2022-11-23T04:45:38.464Z,99806.28
2022-11-23T04:48:08.135Z,99810.63
2022-11-23T04:50:40.438Z,99808.06
2022-11-23T04:53:09.021Z,99803.03
2022-11-23T04:55:46.136Z,99810.63
2022-11-23T04:58:13.192Z,99792.47
2022-11-23T05:00:40.444Z,99806.00
2022-11-23T05:03:08.065Z,99800.91
2022-11-23T05:05:40.536Z,99796.38
2022-11-23T05:08:08.944Z,99801.63
2022-11-23T05:10:46.242Z,99804.97
2022-11-23T05:13:13.506Z,99799.81
2022-11-23T05:15:40.189Z,99798.00
2022-11-23T05:18:07.242Z,99801.41
2022-11-23T05:20:35.491Z,99803.22
2022-11-23T05:23:04.528Z,99802.78
2022-11-23T05:25:33.572Z,99801.06
2022-11-23T05:28:11.381Z,99811.75
2022-11-23T05:30:50.613Z,99815.44
2022-11-23T05:33:17.688Z,99816.03
2022-11-23T05:35:44.371Z,99807.22
2022-11-23T05:38:11.087Z,99804.47
2022-11-23T05:40:37.821Z,99810.53
2022-11-23T05:43:06.553Z,99814.72
2022-11-23T05:45:35.327Z,99810.84
2022-11-23T05:48:03.253Z,99819.38
2022-11-23T05:50:55.054Z,99823.47
2022-11-23T05:53:30.388Z,99814.09
2022-11-23T05:56:08.430Z,99829.63
2022-11-23T05:58:44.548Z,99820.25
2022-11-23T06:01:11.576Z,99827.06
2022-11-23T06:03:46.289Z,99831.69
2022-11-23T06:06:13.542Z,99826.69
2022-11-23T06:08:46.634Z,99838.88
2022-11-23T06:11:18.231Z,99831.22
2022-11-23T06:13:49.677Z,99828.63
2022-11-23T06:16:17.609Z,99837.56
2022-11-23T06:18:57.787Z,99821.28
2022-11-23T06:21:24.436Z,99834.69
2022-11-23T06:23:51.675Z,99827.59
2022-11-23T06:26:19.044Z,99834.50
2022-11-23T06:28:45.889Z,99828.59
2022-11-23T06:31:17.160Z,99833.88
2022-11-23T06:33:43.820Z,99840.50
2022-11-23T06:36:11.436Z,99835.84
2022-11-23T06:38:44.312Z,99836.59
2022-11-23T06:41:19.260Z,99842.22
2022-11-23T06:43:47.948Z,99840.13
2022-11-23T06:46:22.426Z,99834.88
2022-11-23T06:48:50.143Z,99840.59
2022-11-23T06:51:16.994Z,99834.72
2022-11-23T06:53:45.065Z,99840.72
2022-11-23T06:56:13.918Z,99839.59
2022-11-23T06:58:40.827Z,99835.19
2022-11-23T07:01:12.727Z,99840.34
2022-11-23T07:03:48.560Z,99833.59
2022-11-23T07:06:22.176Z,99841.94
2022-11-23T07:08:54.795Z,99844.66
2022-11-23T07:11:47.864Z,99853.53
2022-11-23T07:14:16.505Z,99847.38
2022-11-23T07:16:48.659Z,99852.00
2022-11-23T07:19:15.569Z,99847.25
2022-11-23T07:21:42.602Z,99852.16
2022-11-23T07:24:09.355Z,99853.78
2022-11-23T07:26:35.959Z,99843.38
2022-11-23T07:29:04.284Z,99848.63
2022-11-23T07:31:31.107Z,99859.75
2022-11-23T07:33:57.707Z,99860.31
2022-11-23T07:36:24.742Z,99863.41
2022-11-23T07:38:51.313Z,99858.47
2022-11-23T07:41:20.116Z,99866.22
2022-11-23T07:44:03.287Z,99860.97
2022-11-23T07:46:29.861Z,99857.41
2022-11-23T07:49:01.291Z,99850.41
2022-11-23T07:51:29.618Z,99863.09
2022-11-23T07:53:56.397Z,99868.03
2022-11-23T07:56:23.471Z,99870.75
2022-11-23T07:58:50.488Z,99865.59
2022-11-23T08:01:18.838Z,99870.59
2022-11-23T08:03:46.491Z,99861.66
2022-11-23T08:06:14.586Z,99863.47
2022-11-23T08:08:42.357Z,99857.50
2022-11-23T08:11:09.647Z,99870.97
2022-11-23T08:13:37.321Z,99868.47
2022-11-23T08:16:04.051Z,99864.22
2022-11-23T08:18:30.692Z,99862.31
2022-11-23T08:21:02.844Z,99872.72
2022-11-23T08:23:29.931Z,99867.56
2022-11-23T08:25:56.556Z,99862.31
2022-11-23T08:28:23.191Z,99860.19
2022-11-23T08:30:50.150Z,99866.28
2022-11-23T08:33:17.330Z,99865.44
2022-11-23T08:35:43.950Z,99872.44
2022-11-23T08:38:11.463Z,99871.13
2022-11-23T08:40:38.809Z,99864.22
2022-11-23T08:43:06.304Z,99869.47
2022-11-23T08:45:32.930Z,99871.66
2022-11-23T08:48:01.116Z,99863.03
2022-11-23T08:50:29.309Z,99862.13
2022-11-23T08:52:57.233Z,99858.47
2022-11-23T08:55:25.620Z,99865.06
2022-11-23T08:57:56.030Z,99870.13
2022-11-23T09:00:22.878Z,99859.22
2022-11-23T09:02:49.607Z,99859.66
2022-11-23T09:05:16.351Z,99862.16
2022-11-23T09:07:43.072Z,99853.56
2022-11-23T09:10:13.617Z,99851.59
2022-11-23T09:12:43.653Z,99862.16
2022-11-23T09:15:10.357Z,99859.59
2022-11-23T09:17:37.058Z,99865.19
2022-11-23T09:20:03.996Z,99857.44
2022-11-23T09:22:31.791Z,99863.06
2022-11-23T09:24:58.557Z,99861.34
2022-11-23T09:27:25.582Z,99858.88
2022-11-23T09:29:52.224Z,99866.88
2022-11-23T09:32:18.846Z,99873.59
2022-11-23T09:34:45.500Z,99866.72
2022-11-23T09:37:13.102Z,99869.69
2022-11-23T09:39:39.745Z,99874.09
2022-11-23T09:42:24.712Z,99873.13
2022-11-23T09:44:54.208Z,99868.63
2022-11-23T09:47:51.593Z,99861.81
2022-11-23T09:50:27.553Z,99873.28
2022-11-23T09:52:54.413Z,99882.69
2022-11-23T09:55:36.814Z,99858.41
2022-11-23T09:58:05.943Z,99862.38
2022-11-23T10:00:46.025Z,99858.94
2022-11-23T10:03:16.109Z,99867.44
2022-11-23T10:05:50.346Z,99862.13
2022-11-23T10:08:52.082Z,99860.34
2022-11-23T10:11:42.903Z,99868.38
2022-11-23T10:14:39.462Z,99870.69
2022-11-23T10:17:28.388Z,99861.97
2022-11-23T10:20:19.310Z,99876.72
2022-11-23T10:23:00.668Z,99869.88
2022-11-23T10:25:46.398Z,99869.47
2022-11-23T10:28:15.898Z,99875.16
2022-11-23T10:30:43.265Z,99863.72
2022-11-23T10:33:31.621Z,99872.31
2022-11-23T10:35:58.436Z,99858.22
2022-11-23T10:38:27.896Z,99866.72
2022-11-23T10:41:08.547Z,99866.06
2022-11-23T10:43:54.004Z,99863.91
2022-11-23T10:46:31.726Z,99863.31
2022-11-23T10:49:20.236Z,99867.91
2022-11-23T10:52:27.874Z,99866.25
2022-11-23T10:54:57.200Z,99865.06
2022-11-23T10:57:44.649Z,99867.16
2022-11-23T11:00:13.007Z,99865.38
2022-11-23T11:02:42.407Z,99863.66
2022-11-23T11:06:08.579Z,99856.38
2022-11-23T11:08:31.858Z,99866.81
2022-11-23T11:11:21.295Z,99869.31
2022-11-23T11:13:49.120Z,99870.31
2022-11-23T11:16:27.622Z,99873.88
2022-11-23T11:18:54.348Z,99871.56
2022-11-23T11:21:24.050Z,99872.91
2022-11-23T11:24:03.155Z,99872.81
2022-11-23T11:26:33.212Z,99869.91
2022-11-23T11:29:05.517Z,99874.63
2022-11-23T11:31:38.125Z,99875.81
2022-11-23T11:34:16.250Z,99867.16
2022-11-23T11:37:01.756Z,99875.00
2022-11-23T11:39:35.508Z,99871.91
2022-11-23T11:42:07.215Z,99865.91
2022-11-23T11:44:38.697Z,99872.66
2022-11-23T11:47:18.831Z,99877.66
2022-11-23T11:49:49.170Z,99877.81
2022-11-23T11:52:22.226Z,99876.47
2022-11-23T11:55:15.253Z,99872.47
2022-11-23T11:57:48.786Z,99876.66
2022-11-23T12:00:20.365Z,99870.56
2022-11-23T12:03:10.706Z,99870.41
2022-11-23T12:05:49.030Z,99867.81
2022-11-23T12:08:22.533Z,99866.31
2022-11-23T12:10:55.004Z,99869.50
2022-11-23T12:13:29.739Z,99869.28
2022-11-23T12:16:16.329Z,99871.72
2022-11-23T12:18:56.719Z,99869.88
2022-11-23T12:21:56.492Z,99870.56
2022-11-23T12:24:47.413Z,99872.91
2022-11-23T12:27:59.200Z,99868.22
2022-11-23T12:30:31.848Z,99871.50
2022-11-23T12:33:01.365Z,99871.06
2022-11-23T12:35:40.223Z,99879.47
2022-11-23T12:38:38.090Z,99878.88
2022-11-23T12:41:16.860Z,99871.97
2022-11-23T12:44:04.323Z,99871.41
2022-11-23T12:47:05.777Z,99874.72
2022-11-23T12:49:39.312Z,99875.63
2022-11-23T12:52:47.517Z,99875.47
2022-11-23T12:55:19.905Z,99874.81
2022-11-23T12:58:14.254Z,99871.19
2022-11-23T13:00:49.878Z,99872.53
2022-11-23T13:03:37.662Z,99877.06
2022-11-23T13:06:19.754Z,99866.63
2022-11-23T13:09:22.847Z,99871.63
2022-11-23T13:12:23.453Z,99871.31
2022-11-23T13:15:27.872Z,99874.22
2022-11-23T13:18:37.348Z,99870.78
2022-11-23T13:21:22.067Z,99876.47
2022-11-23T13:23:48.943Z,99879.88
2022-11-23T13:26:18.882Z,99863.94
2022-11-23T13:28:47.603Z,99869.06
2022-11-23T13:31:17.247Z,99866.63
2022-11-23T13:33:46.265Z,99866.63
2022-11-23T13:37:11.045Z,99866.47
2022-11-23T13:39:45.244Z,99871.88
2022-11-23T13:42:13.527Z,99868.19
2022-11-23T13:44:40.143Z,99870.63
2022-11-23T13:47:19.265Z,99870.44
2022-11-23T13:50:07.129Z,99870.28
2022-11-23T13:52:36.286Z,99867.13
2022-11-23T13:55:27.727Z,99869.47
2022-11-23T13:58:25.388Z,99880.13
2022-11-23T14:00:57.345Z,99869.94
2022-11-23T14:03:42.380Z,99883.31
2022-11-23T14:06:27.847Z,99875.97
2022-11-23T14:09:12.780Z,99869.88
2022-11-23T14:12:08.626Z,99876.38
2022-11-23T14:14:49.341Z,99874.63
2022-11-23T14:17:34.262Z,99877.63
2022-11-23T14:20:19.193Z,99884.56
2022-11-23T14:23:13.478Z,99879.16
2022-11-23T14:26:26.972Z,99880.91
2022-11-23T14:29:12.276Z,99879.91
2022-11-23T14:31:51.897Z,99877.56
2022-11-23T14:34:41.310Z,99882.31
2022-11-23T14:37:10.818Z,99887.06
2022-11-23T14:40:14.835Z,99892.34
2022-11-23T14:42:52.465Z,99890.66
2022-11-23T14:45:21.740Z,99899.97
2022-11-23T14:47:48.693Z,99891.06
2022-11-23T14:50:21.391Z,99885.66
2022-11-23T14:52:48.769Z,99884.59
2022-11-23T14:55:21.548Z,99896.59
2022-11-23T14:57:51.494Z,99902.09
2022-11-23T15:00:29.149Z,99886.31
2022-11-23T15:03:00.094Z,99894.50
2022-11-23T15:05:33.270Z,99886.81
2022-11-23T15:08:11.979Z,99885.81
2022-11-23T15:10:38.605Z,99887.91
2022-11-23T15:13:23.859Z,99883.66
2022-11-23T15:15:55.856Z,99885.72
2022-11-23T15:18:34.648Z,99886.56
2022-11-23T15:21:27.318Z,99892.56
2022-11-23T15:23:57.368Z,99884.47
2022-11-23T15:26:48.619Z,99879.56
2022-11-23T15:29:34.902Z,99884.59
2022-11-23T15:32:30.667Z,99892.56
2022-11-23T15:35:06.559Z,99886.47
2022-11-23T15:37:41.175Z,99888.75
2022-11-23T15:40:13.624Z,99884.75
2022-11-23T15:42:40.878Z,99892.81
2022-11-23T15:45:45.705Z,99890.66
2022-11-23T15:48:17.671Z,99892.06
2022-11-23T15:50:58.954Z,99895.41
2022-11-23T15:53:31.839Z,99891.25
2022-11-23T15:56:05.811Z,99898.75
2022-11-23T15:58:35.142Z,99899.81
2022-11-23T16:01:13.551Z,99900.47
2022-11-23T16:03:47.479Z,99903.81
2022-11-23T16:06:14.142Z,99909.66
2022-11-23T16:08:41.258Z,99900.31
2022-11-23T16:11:36.714Z,99899.56
2022-11-23T16:14:20.889Z,99902.56
2022-11-23T16:16:58.547Z,99903.00
2022-11-23T16:19:29.502Z,99900.41
2022-11-23T16:22:03.176Z,99905.47
2022-11-23T16:24:32.135Z,99904.97
2022-11-23T16:26:59.465Z,99901.00
2022-11-23T16:29:30.543Z,99897.50
2022-11-23T16:32:02.746Z,99897.81
2022-11-23T16:34:29.491Z,99894.91
2022-11-23T16:36:56.436Z,99901.47
2022-11-23T16:39:24.125Z,99903.75
2022-11-23T16:41:52.059Z,99908.00
2022-11-23T16:44:19.505Z,99893.75
2022-11-23T16:46:47.689Z,99894.00
2022-11-23T16:49:20.457Z,99889.06
2022-11-23T16:51:56.160Z,99898.63
2022-11-23T16:54:25.057Z,99899.31
2022-11-23T16:56:52.684Z,99903.47
2022-11-23T16:59:20.015Z,99895.56
2022-11-23T17:01:53.860Z,99907.81
2022-11-23T17:04:24.148Z,99903.81
2022-11-23T17:06:50.946Z,99906.91
2022-11-23T17:09:17.577Z,99905.00
2022-11-23T17:11:47.390Z,99908.91
2022-11-23T17:14:18.961Z,99916.25
2022-11-23T17:16:46.605Z,99918.41
2022-11-23T17:19:18.066Z,99928.56
2022-11-23T17:21:45.090Z,99918.66
2022-11-23T17:24:12.866Z,99925.75
2022-11-23T17:26:45.371Z,99931.16
2022-11-23T17:29:19.467Z,99927.34
2022-11-23T17:31:47.607Z,99920.34
2022-11-23T17:34:15.296Z,99919.84
2022-11-23T17:36:44.341Z,99920.91
2022-11-23T17:39:24.573Z,99921.22
2022-11-23T17:41:51.308Z,99926.72
2022-11-23T17:44:20.510Z,99927.63
2022-11-23T17:46:47.653Z,99937.97
2022-11-23T17:49:17.982Z,99927.94
2022-11-23T17:51:44.746Z,99929.72
2022-11-23T17:54:11.518Z,99934.94
2022-11-23T17:56:38.790Z,99933.53
2022-11-23T17:59:06.693Z,99925.13
2022-11-23T18:01:35.815Z,99946.28
2022-11-23T18:06:51.136Z,99940.88
2022-11-23T18:09:18.180Z,99947.78
2022-11-23T18:11:44.790Z,99941.94
2022-11-23T18:14:11.486Z,99939.19
2022-11-23T18:16:38.060Z,99950.88
2022-11-23T18:19:05.429Z,99938.47
2022-11-23T18:21:32.040Z,99946.16
2022-11-23T18:24:04.098Z,99941.41
2022-11-23T18:26:31.737Z,99941.47
2022-11-23T18:28:58.367Z,99943.78
2022-11-23T18:31:24.997Z,99946.38
2022-11-23T18:33:51.670Z,99949.66
2022-11-23T18:36:18.368Z,99945.47
2022-11-23T18:38:45.279Z,99943.63
2022-11-23T18:41:16.677Z,99947.06
2022-11-23T18:43:44.684Z,99948.97
2022-11-23T18:46:12.868Z,99937.81
2022-11-23T18:48:39.506Z,99944.38
2022-11-23T18:51:11.677Z,99948.13
2022-11-23T18:53:38.352Z,99947.06
2022-11-23T18:56:06.017Z,99943.63
2022-11-23T18:58:38.084Z,99938.63
2022-11-23T19:01:13.299Z,99947.38
2022-11-23T19:03:44.143Z,99944.56
2022-11-23T19:06:13.643Z,99953.72
2022-11-23T19:08:42.338Z,99948.22
2022-11-23T19:11:17.556Z,99953.97
2022-11-23T19:13:46.138Z,99957.25
2022-11-23T19:16:16.587Z,99954.72
2022-11-23T19:18:43.824Z,99963.97
2022-11-23T19:21:19.125Z,99969.09
2022-11-23T19:23:50.700Z,99966.34
2022-11-23T19:26:18.406Z,99977.34
2022-11-23T19:28:45.561Z,99977.84
2022-11-23T19:31:29.338Z,99982.09
2022-11-23T19:34:01.752Z,99979.91
2022-11-23T19:36:30.847Z,99982.19
2022-11-23T19:38:58.200Z,99986.44
2022-11-23T19:41:29.777Z,99991.34
2022-11-23T19:43:58.354Z,99995.38
2022-11-23T19:46:25.371Z,99991.94
2022-11-23T19:48:52.018Z,99990.97
2022-11-23T19:51:19.997Z,100003.78
2022-11-23T19:53:49.137Z,100004.72
2022-11-23T19:56:22.032Z,100002.53
2022-11-23T19:58:54.311Z,100010.19
2022-11-23T20:01:22.593Z,100012.31
2022-11-23T20:03:51.245Z,100009.72
2022-11-23T20:06:21.625Z,100014.94
2022-11-23T20:08:57.066Z,100021.56
2022-11-23T20:11:24.573Z,100015.97
2022-11-23T20:13:51.502Z,100026.06
2022-11-23T20:16:20.042Z,100020.88
2022-11-23T20:18:49.090Z,100020.72
2022-11-23T20:21:19.655Z,100033.59
2022-11-23T20:23:47.497Z,100040.59
2022-11-23T20:26:18.613Z,100027.50
2022-11-23T20:28:46.380Z,100034.34
2022-11-23T20:31:20.344Z,100034.84
2022-11-23T20:33:47.994Z,100040.91
2022-11-23T20:36:25.820Z,100043.09
2022-11-23T20:38:53.637Z,100042.34
2022-11-23T20:41:26.711Z,100043.78
2022-11-23T20:43:58.981Z,100037.09
2022-11-23T20:46:46.034Z,100041.56
2022-11-23T20:49:14.054Z,100046.34
2022-11-23T20:51:40.614Z,100036.59
2022-11-23T20:54:08.749Z,100047.09
2022-11-23T20:56:38.752Z,100042.16
2022-11-23T20:59:05.439Z,100037.69
2022-11-23T21:01:32.529Z,100042.84
2022-11-23T21:03:59.948Z,100036.50
2022-11-23T21:06:27.759Z,100045.28
2022-11-23T21:08:55.118Z,100043.34
2022-11-23T21:11:45.922Z,100046.94
2022-11-23T21:14:18.860Z,100050.63
2022-11-23T21:16:55.002Z,100051.09
2022-11-23T21:19:23.874Z,100049.88
2022-11-23T21:21:50.450Z,100047.50
2022-11-23T21:24:17.076Z,100052.03
2022-11-23T21:26:43.785Z,100046.78
2022-11-23T21:29:11.382Z,100050.09
2022-11-23T21:31:39.497Z,100054.34
2022-11-23T21:34:06.274Z,100048.94
2022-11-23T21:36:39.086Z,100054.94
2022-11-23T21:39:09.014Z,100051.03
2022-11-23T21:41:36.371Z,100048.34
2022-11-23T21:44:04.446Z,100052.78
2022-11-23T21:46:31.478Z,100058.81
2022-11-23T21:48:59.592Z,100053.63
2022-11-23T21:51:29.749Z,100056.13
2022-11-23T21:53:58.216Z,100055.28
2022-11-23T21:56:25.039Z,100051.28
2022-11-23T21:58:52.305Z,100046.03
2022-11-23T22:01:21.621Z,100047.13
2022-11-23T22:03:54.482Z,100048.63
2022-11-23T22:06:22.356Z,100036.75
2022-11-23T22:08:54.566Z,100035.09
2022-11-23T22:11:29.546Z,100037.25
2022-11-23T22:13:58.223Z,100037.59
2022-11-23T22:16:30.108Z,100035.91
2022-11-23T22:18:58.031Z,100044.69
2022-11-23T22:21:29.190Z,100049.75
2022-11-23T22:23:55.873Z,100048.94
2022-11-23T22:26:22.642Z,100054.94
2022-11-23T22:28:50.863Z,100068.47
2022-11-23T22:31:23.208Z,100063.97
2022-11-23T22:33:50.366Z,100064.97
2022-11-23T22:36:22.202Z,100066.63
2022-11-23T22:38:56.600Z,100063.97
2022-11-23T22:41:28.034Z,100065.88
2022-11-23T22:43:54.946Z,100066.38
2022-11-23T22:46:23.588Z,100067.38
2022-11-23T22:48:51.747Z,100068.94
2022-11-23T22:51:23.298Z,100073.13
2022-11-23T22:53:55.104Z,100067.63
2022-11-23T22:56:22.303Z,100069.03
2022-11-23T22:58:49.823Z,100068.88
2022-11-23T23:01:19.059Z,100062.63
2022-11-23T23:03:46.612Z,100061.88
2022-11-23T23:06:18.918Z,100059.63
2022-11-23T23:08:46.790Z,100057.69
2022-11-23T23:11:14.691Z,100060.97
2022-11-23T23:13:41.877Z,100057.94
2022-11-23T23:16:11.824Z,100055.84
2022-11-23T23:18:39.247Z,100061.13
2022-11-23T23:21:10.919Z,100060.38
2022-11-23T23:23:38.745Z,100067.22
2022-11-23T23:26:06.416Z,100064.69
2022-11-23T23:28:33.686Z,100068.03
2022-11-23T23:31:02.600Z,100066.03
2022-11-23T23:33:29.759Z,100068.41
2022-11-23T23:35:56.739Z,100069.22
2022-11-23T23:38:30.037Z,100065.81
2022-11-23T23:40:56.760Z,100062.97
2022-11-23T23:43:23.445Z,100066.28
2022-11-23T23:45:51.617Z,100073.03
2022-11-23T23:48:18.360Z,100068.63
2022-11-23T23:50:44.964Z,100067.81
2022-11-23T23:53:11.599Z,100072.56
2022-11-23T23:55:38.443Z,100077.22
2022-11-23T23:58:05.116Z,100071.03
